sensor_id;sensor_type;location;lat;lon;timestamp;temperature;humidity
54168;DHT22;68429;50.958;3.592;2023-10-19T00:02:13;16.20;99.90
54168;DHT22;68429;50.958;3.592;2023-10-19T00:04:40;16.20;99.90
54168;DHT22;68429;50.958;3.592;2023-10-19T00:07:06;16.20;99.90
54168;DHT22;68429;50.958;3.592;2023-10-19T00:09:34;16.20;99.90
54168;DHT22;68429;50.958;3.592;2023-10-19T00:12:06;16.20;99.90
54168;DHT22;68429;50.958;3.592;2023-10-19T00:14:34;16.20;99.90
54168;DHT22;68429;50.958;3.592;2023-10-19T00:17:02;16.20;99.90
54168;DHT22;68429;50.958;3.592;2023-10-19T00:19:32;16.20;99.90
54168;DHT22;68429;50.958;3.592;2023-10-19T00:22:04;16.20;99.90
54168;DHT22;68429;50.958;3.592;2023-10-19T00:24:34;16.10;99.90
54168;DHT22;68429;50.958;3.592;2023-10-19T00:27:00;16.10;99.90
54168;DHT22;68429;50.958;3.592;2023-10-19T00:29:33;16.10;99.90
54168;DHT22;68429;50.958;3.592;2023-10-19T00:32:05;16.10;99.90
54168;DHT22;68429;50.958;3.592;2023-10-19T00:34:32;16.10;99.90
54168;DHT22;68429;50.958;3.592;2023-10-19T00:36:59;16.10;99.90
54168;DHT22;68429;50.958;3.592;2023-10-19T00:39:34;16.10;99.90
54168;DHT22;68429;50.958;3.592;2023-10-19T00:42:08;16.10;99.90
54168;DHT22;68429;50.958;3.592;2023-10-19T00:44:34;16.00;99.90
54168;DHT22;68429;50.958;3.592;2023-10-19T00:47:14;16.00;99.90
54168;DHT22;68429;50.958;3.592;2023-10-19T00:49:47;16.00;99.90
54168;DHT22;68429;50.958;3.592;2023-10-19T00:52:14;16.00;99.90
54168;DHT22;68429;50.958;3.592;2023-10-19T00:54:50;16.00;99.90
54168;DHT22;68429;50.958;3.592;2023-10-19T00:57:18;16.00;99.90
54168;DHT22;68429;50.958;3.592;2023-10-19T00:59:56;16.10;99.90
54168;DHT22;68429;50.958;3.592;2023-10-19T01:02:37;16.10;99.90
54168;DHT22;68429;50.958;3.592;2023-10-19T01:05:09;16.00;99.90
54168;DHT22;68429;50.958;3.592;2023-10-19T01:07:38;16.00;99.90
54168;DHT22;68429;50.958;3.592;2023-10-19T01:10:05;16.10;99.90
54168;DHT22;68429;50.958;3.592;2023-10-19T01:12:32;16.00;99.90
54168;DHT22;68429;50.958;3.592;2023-10-19T01:15:12;16.10;99.90
54168;DHT22;68429;50.958;3.592;2023-10-19T01:17:54;16.00;99.90
54168;DHT22;68429;50.958;3.592;2023-10-19T01:25:51;16.00;99.90
54168;DHT22;68429;50.958;3.592;2023-10-19T01:28:31;16.00;99.90
54168;DHT22;68429;50.958;3.592;2023-10-19T01:31:20;16.00;99.90
54168;DHT22;68429;50.958;3.592;2023-10-19T01:34:00;16.00;99.90
54168;DHT22;68429;50.958;3.592;2023-10-19T01:36:34;16.00;99.90
54168;DHT22;68429;50.958;3.592;2023-10-19T01:39:07;16.00;99.90
54168;DHT22;68429;50.958;3.592;2023-10-19T01:41:37;16.10;99.90
54168;DHT22;68429;50.958;3.592;2023-10-19T01:44:03;16.00;99.90
54168;DHT22;68429;50.958;3.592;2023-10-19T01:46:34;16.00;99.90
54168;DHT22;68429;50.958;3.592;2023-10-19T01:49:02;15.90;99.90
54168;DHT22;68429;50.958;3.592;2023-10-19T01:51:31;15.90;99.90
54168;DHT22;68429;50.958;3.592;2023-10-19T01:53:58;15.80;99.90
54168;DHT22;68429;50.958;3.592;2023-10-19T01:56:26;15.80;99.90
54168;DHT22;68429;50.958;3.592;2023-10-19T01:58:52;15.70;99.90
54168;DHT22;68429;50.958;3.592;2023-10-19T02:01:20;15.60;99.90
54168;DHT22;68429;50.958;3.592;2023-10-19T02:03:47;15.60;99.90
54168;DHT22;68429;50.958;3.592;2023-10-19T02:06:18;15.60;99.90
54168;DHT22;68429;50.958;3.592;2023-10-19T02:08:52;15.60;99.90
54168;DHT22;68429;50.958;3.592;2023-10-19T02:11:24;15.50;99.90
54168;DHT22;68429;50.958;3.592;2023-10-19T02:13:52;15.60;99.90
54168;DHT22;68429;50.958;3.592;2023-10-19T02:16:20;15.50;99.90
54168;DHT22;68429;50.958;3.592;2023-10-19T02:18:48;15.60;99.90
54168;DHT22;68429;50.958;3.592;2023-10-19T02:21:15;15.50;99.90
54168;DHT22;68429;50.958;3.592;2023-10-19T02:23:44;15.50;99.90
54168;DHT22;68429;50.958;3.592;2023-10-19T02:26:10;15.50;99.90
54168;DHT22;68429;50.958;3.592;2023-10-19T02:28:39;15.50;99.90
54168;DHT22;68429;50.958;3.592;2023-10-19T02:31:05;15.50;99.90
54168;DHT22;68429;50.958;3.592;2023-10-19T02:33:45;15.50;99.90
54168;DHT22;68429;50.958;3.592;2023-10-19T02:36:18;15.50;99.90
54168;DHT22;68429;50.958;3.592;2023-10-19T02:38:45;15.50;99.90
54168;DHT22;68429;50.958;3.592;2023-10-19T02:41:15;15.50;99.90
54168;DHT22;68429;50.958;3.592;2023-10-19T02:43:41;15.50;99.90
54168;DHT22;68429;50.958;3.592;2023-10-19T02:46:11;15.50;99.90
54168;DHT22;68429;50.958;3.592;2023-10-19T02:48:39;15.50;99.90
54168;DHT22;68429;50.958;3.592;2023-10-19T02:51:10;15.50;99.90
54168;DHT22;68429;50.958;3.592;2023-10-19T02:53:37;15.40;99.90
54168;DHT22;68429;50.958;3.592;2023-10-19T02:56:14;15.40;99.90
54168;DHT22;68429;50.958;3.592;2023-10-19T02:58:43;15.40;99.90
54168;DHT22;68429;50.958;3.592;2023-10-19T03:01:19;15.30;99.90
54168;DHT22;68429;50.958;3.592;2023-10-19T03:03:54;15.30;99.90
54168;DHT22;68429;50.958;3.592;2023-10-19T03:06:23;15.40;99.90
54168;DHT22;68429;50.958;3.592;2023-10-19T03:08:49;15.40;99.90
54168;DHT22;68429;50.958;3.592;2023-10-19T03:11:27;15.40;99.90
54168;DHT22;68429;50.958;3.592;2023-10-19T03:13:56;15.30;99.90
54168;DHT22;68429;50.958;3.592;2023-10-19T03:16:22;15.30;99.90
54168;DHT22;68429;50.958;3.592;2023-10-19T03:18:52;15.40;99.90
54168;DHT22;68429;50.958;3.592;2023-10-19T03:21:17;15.40;99.90
54168;DHT22;68429;50.958;3.592;2023-10-19T03:23:44;15.40;99.90
54168;DHT22;68429;50.958;3.592;2023-10-19T03:26:11;15.40;99.90
54168;DHT22;68429;50.958;3.592;2023-10-19T03:28:55;15.40;99.90
54168;DHT22;68429;50.958;3.592;2023-10-19T03:31:24;15.40;99.90
54168;DHT22;68429;50.958;3.592;2023-10-19T03:33:53;15.40;99.90
54168;DHT22;68429;50.958;3.592;2023-10-19T03:36:25;15.40;99.90
54168;DHT22;68429;50.958;3.592;2023-10-19T03:38:52;15.40;99.90
54168;DHT22;68429;50.958;3.592;2023-10-19T03:41:21;15.40;99.90
54168;DHT22;68429;50.958;3.592;2023-10-19T03:43:48;15.40;99.90
54168;DHT22;68429;50.958;3.592;2023-10-19T03:46:14;15.40;99.90
54168;DHT22;68429;50.958;3.592;2023-10-19T03:49:01;15.40;99.90
54168;DHT22;68429;50.958;3.592;2023-10-19T03:51:36;15.50;99.90
54168;DHT22;68429;50.958;3.592;2023-10-19T03:54:06;15.50;99.90
54168;DHT22;68429;50.958;3.592;2023-10-19T03:56:50;15.50;99.90
54168;DHT22;68429;50.958;3.592;2023-10-19T03:59:16;15.50;99.90
54168;DHT22;68429;50.958;3.592;2023-10-19T04:01:43;15.50;99.90
54168;DHT22;68429;50.958;3.592;2023-10-19T04:04:09;15.50;99.90
54168;DHT22;68429;50.958;3.592;2023-10-19T04:06:35;15.40;99.90
54168;DHT22;68429;50.958;3.592;2023-10-19T04:09:02;15.50;99.90
54168;DHT22;68429;50.958;3.592;2023-10-19T04:11:31;15.50;99.90
54168;DHT22;68429;50.958;3.592;2023-10-19T04:14:16;15.50;99.90
54168;DHT22;68429;50.958;3.592;2023-10-19T04:16:43;15.50;99.90
54168;DHT22;68429;50.958;3.592;2023-10-19T04:19:10;15.50;99.90
54168;DHT22;68429;50.958;3.592;2023-10-19T04:21:36;15.50;99.90
54168;DHT22;68429;50.958;3.592;2023-10-19T04:24:05;15.50;99.90
54168;DHT22;68429;50.958;3.592;2023-10-19T04:26:33;15.40;99.90
54168;DHT22;68429;50.958;3.592;2023-10-19T04:29:03;15.50;99.90
54168;DHT22;68429;50.958;3.592;2023-10-19T04:31:43;15.50;99.90
54168;DHT22;68429;50.958;3.592;2023-10-19T04:34:18;15.50;99.90
54168;DHT22;68429;50.958;3.592;2023-10-19T04:36:47;15.50;99.90
54168;DHT22;68429;50.958;3.592;2023-10-19T04:39:12;15.50;99.90
54168;DHT22;68429;50.958;3.592;2023-10-19T04:41:39;15.50;99.90
54168;DHT22;68429;50.958;3.592;2023-10-19T04:44:05;15.50;99.90
54168;DHT22;68429;50.958;3.592;2023-10-19T04:46:34;15.50;99.90
54168;DHT22;68429;50.958;3.592;2023-10-19T04:48:59;15.50;99.90
54168;DHT22;68429;50.958;3.592;2023-10-19T04:51:25;15.50;99.90
54168;DHT22;68429;50.958;3.592;2023-10-19T04:53:51;15.50;99.90
54168;DHT22;68429;50.958;3.592;2023-10-19T04:56:16;15.50;99.90
54168;DHT22;68429;50.958;3.592;2023-10-19T04:58:42;15.50;99.90
54168;DHT22;68429;50.958;3.592;2023-10-19T05:01:08;15.60;99.90
54168;DHT22;68429;50.958;3.592;2023-10-19T05:03:37;15.50;99.90
54168;DHT22;68429;50.958;3.592;2023-10-19T05:06:02;15.60;99.90
54168;DHT22;68429;50.958;3.592;2023-10-19T05:08:28;15.50;99.90
54168;DHT22;68429;50.958;3.592;2023-10-19T05:10:55;15.60;99.90
54168;DHT22;68429;50.958;3.592;2023-10-19T05:13:23;15.60;99.90
54168;DHT22;68429;50.958;3.592;2023-10-19T05:15:49;15.50;99.90
54168;DHT22;68429;50.958;3.592;2023-10-19T05:18:14;15.60;99.90
54168;DHT22;68429;50.958;3.592;2023-10-19T05:20:40;15.60;99.90
54168;DHT22;68429;50.958;3.592;2023-10-19T05:23:09;15.60;99.90
54168;DHT22;68429;50.958;3.592;2023-10-19T05:25:36;15.50;99.90
54168;DHT22;68429;50.958;3.592;2023-10-19T05:28:06;15.50;99.90
54168;DHT22;68429;50.958;3.592;2023-10-19T05:30:33;15.50;99.90
54168;DHT22;68429;50.958;3.592;2023-10-19T05:32:59;15.50;99.90
54168;DHT22;68429;50.958;3.592;2023-10-19T05:35:27;15.50;99.90
54168;DHT22;68429;50.958;3.592;2023-10-19T05:37:54;15.60;99.90
54168;DHT22;68429;50.958;3.592;2023-10-19T05:40:24;15.60;99.90
54168;DHT22;68429;50.958;3.592;2023-10-19T05:42:55;15.60;99.90
54168;DHT22;68429;50.958;3.592;2023-10-19T05:45:21;15.60;99.90
54168;DHT22;68429;50.958;3.592;2023-10-19T05:47:46;15.60;99.90
54168;DHT22;68429;50.958;3.592;2023-10-19T05:50:12;15.60;99.90
54168;DHT22;68429;50.958;3.592;2023-10-19T05:52:41;15.60;99.90
54168;DHT22;68429;50.958;3.592;2023-10-19T05:55:09;15.60;99.90
54168;DHT22;68429;50.958;3.592;2023-10-19T05:57:37;15.60;99.90
54168;DHT22;68429;50.958;3.592;2023-10-19T06:00:06;15.50;99.90
54168;DHT22;68429;50.958;3.592;2023-10-19T06:02:32;15.40;99.90
54168;DHT22;68429;50.958;3.592;2023-10-19T06:04:57;15.40;99.90
54168;DHT22;68429;50.958;3.592;2023-10-19T06:07:23;15.40;99.90
54168;DHT22;68429;50.958;3.592;2023-10-19T06:09:50;15.40;99.90
54168;DHT22;68429;50.958;3.592;2023-10-19T06:12:16;15.40;99.90
54168;DHT22;68429;50.958;3.592;2023-10-19T06:14:41;15.30;99.90
54168;DHT22;68429;50.958;3.592;2023-10-19T06:17:07;15.30;99.90
54168;DHT22;68429;50.958;3.592;2023-10-19T06:19:32;15.30;99.90
54168;DHT22;68429;50.958;3.592;2023-10-19T06:21:58;15.20;99.90
54168;DHT22;68429;50.958;3.592;2023-10-19T06:24:25;15.20;99.90
54168;DHT22;68429;50.958;3.592;2023-10-19T06:26:51;15.20;99.90
54168;DHT22;68429;50.958;3.592;2023-10-19T06:29:18;15.10;99.90
54168;DHT22;68429;50.958;3.592;2023-10-19T06:31:43;15.20;99.90
54168;DHT22;68429;50.958;3.592;2023-10-19T06:34:09;15.20;99.90
54168;DHT22;68429;50.958;3.592;2023-10-19T06:36:36;15.10;99.90
54168;DHT22;68429;50.958;3.592;2023-10-19T06:39:01;15.10;99.90
54168;DHT22;68429;50.958;3.592;2023-10-19T06:41:31;15.20;99.90
54168;DHT22;68429;50.958;3.592;2023-10-19T06:43:57;15.20;99.90
54168;DHT22;68429;50.958;3.592;2023-10-19T06:46:24;15.20;99.90
54168;DHT22;68429;50.958;3.592;2023-10-19T06:48:49;15.30;99.90
54168;DHT22;68429;50.958;3.592;2023-10-19T06:51:16;15.30;99.90
54168;DHT22;68429;50.958;3.592;2023-10-19T06:53:42;15.30;99.90
54168;DHT22;68429;50.958;3.592;2023-10-19T06:56:08;15.30;99.90
54168;DHT22;68429;50.958;3.592;2023-10-19T06:58:33;15.30;99.90
54168;DHT22;68429;50.958;3.592;2023-10-19T07:00:59;15.30;99.90
54168;DHT22;68429;50.958;3.592;2023-10-19T07:03:30;15.30;99.90
54168;DHT22;68429;50.958;3.592;2023-10-19T07:05:56;15.30;99.90
54168;DHT22;68429;50.958;3.592;2023-10-19T07:08:23;15.30;99.90
54168;DHT22;68429;50.958;3.592;2023-10-19T07:10:50;15.40;99.90
54168;DHT22;68429;50.958;3.592;2023-10-19T07:13:15;15.50;99.90
54168;DHT22;68429;50.958;3.592;2023-10-19T07:15:41;15.50;99.90
54168;DHT22;68429;50.958;3.592;2023-10-19T07:18:09;15.40;99.90
54168;DHT22;68429;50.958;3.592;2023-10-19T07:20:35;15.50;99.90
54168;DHT22;68429;50.958;3.592;2023-10-19T07:23:05;15.50;99.90
54168;DHT22;68429;50.958;3.592;2023-10-19T07:25:47;15.50;99.90
54168;DHT22;68429;50.958;3.592;2023-10-19T07:28:14;15.50;99.90
54168;DHT22;68429;50.958;3.592;2023-10-19T07:30:41;15.50;99.90
54168;DHT22;68429;50.958;3.592;2023-10-19T07:33:08;15.50;99.90
54168;DHT22;68429;50.958;3.592;2023-10-19T07:35:36;15.50;99.90
54168;DHT22;68429;50.958;3.592;2023-10-19T07:38:05;15.50;99.90
54168;DHT22;68429;50.958;3.592;2023-10-19T07:40:33;15.50;99.90
54168;DHT22;68429;50.958;3.592;2023-10-19T07:42:59;15.60;99.90
54168;DHT22;68429;50.958;3.592;2023-10-19T07:45:25;15.60;99.90
54168;DHT22;68429;50.958;3.592;2023-10-19T07:47:51;15.60;99.90
54168;DHT22;68429;50.958;3.592;2023-10-19T07:50:17;15.70;99.90
54168;DHT22;68429;50.958;3.592;2023-10-19T07:52:43;15.60;99.90
54168;DHT22;68429;50.958;3.592;2023-10-19T07:55:13;15.60;99.90
54168;DHT22;68429;50.958;3.592;2023-10-19T07:57:39;15.60;99.90
54168;DHT22;68429;50.958;3.592;2023-10-19T08:00:08;15.90;99.90
54168;DHT22;68429;50.958;3.592;2023-10-19T08:02:36;16.10;99.90
54168;DHT22;68429;50.958;3.592;2023-10-19T08:05:03;16.30;99.90
54168;DHT22;68429;50.958;3.592;2023-10-19T08:07:29;16.50;99.90
54168;DHT22;68429;50.958;3.592;2023-10-19T08:09:55;16.60;99.90
54168;DHT22;68429;50.958;3.592;2023-10-19T08:12:25;16.70;99.90
54168;DHT22;68429;50.958;3.592;2023-10-19T08:14:55;16.70;99.90
54168;DHT22;68429;50.958;3.592;2023-10-19T08:17:21;16.70;99.90
54168;DHT22;68429;50.958;3.592;2023-10-19T08:19:47;16.80;99.90
54168;DHT22;68429;50.958;3.592;2023-10-19T08:22:13;16.70;99.90
54168;DHT22;68429;50.958;3.592;2023-10-19T08:24:40;16.70;99.90
54168;DHT22;68429;50.958;3.592;2023-10-19T08:27:09;16.70;99.90
54168;DHT22;68429;50.958;3.592;2023-10-19T08:29:36;16.60;99.90
54168;DHT22;68429;50.958;3.592;2023-10-19T08:32:02;16.70;99.90
54168;DHT22;68429;50.958;3.592;2023-10-19T08:34:28;16.70;99.90
54168;DHT22;68429;50.958;3.592;2023-10-19T08:36:55;16.90;99.90
54168;DHT22;68429;50.958;3.592;2023-10-19T08:39:21;17.10;99.90
54168;DHT22;68429;50.958;3.592;2023-10-19T08:41:49;17.10;99.90
54168;DHT22;68429;50.958;3.592;2023-10-19T08:44:19;17.10;99.90
54168;DHT22;68429;50.958;3.592;2023-10-19T08:46:45;17.00;99.90
54168;DHT22;68429;50.958;3.592;2023-10-19T08:49:14;17.20;99.90
54168;DHT22;68429;50.958;3.592;2023-10-19T08:51:44;17.40;99.90
54168;DHT22;68429;50.958;3.592;2023-10-19T08:54:12;17.40;99.90
54168;DHT22;68429;50.958;3.592;2023-10-19T08:56:38;17.30;99.90
54168;DHT22;68429;50.958;3.592;2023-10-19T08:59:04;17.20;99.90
54168;DHT22;68429;50.958;3.592;2023-10-19T09:01:31;17.00;99.90
54168;DHT22;68429;50.958;3.592;2023-10-19T09:03:58;16.90;99.90
54168;DHT22;68429;50.958;3.592;2023-10-19T09:06:25;16.80;99.90
54168;DHT22;68429;50.958;3.592;2023-10-19T09:08:50;16.80;99.90
54168;DHT22;68429;50.958;3.592;2023-10-19T09:11:16;16.80;99.90
54168;DHT22;68429;50.958;3.592;2023-10-19T09:13:47;17.00;99.90
54168;DHT22;68429;50.958;3.592;2023-10-19T09:16:15;17.00;99.90
54168;DHT22;68429;50.958;3.592;2023-10-19T09:18:40;17.10;99.90
54168;DHT22;68429;50.958;3.592;2023-10-19T09:21:07;17.20;99.90
54168;DHT22;68429;50.958;3.592;2023-10-19T09:23:34;17.40;99.90
54168;DHT22;68429;50.958;3.592;2023-10-19T09:26:01;17.40;99.90
54168;DHT22;68429;50.958;3.592;2023-10-19T09:28:31;17.40;99.90
54168;DHT22;68429;50.958;3.592;2023-10-19T09:31:00;17.70;99.90
54168;DHT22;68429;50.958;3.592;2023-10-19T09:33:26;17.70;99.90
54168;DHT22;68429;50.958;3.592;2023-10-19T09:35:52;17.60;99.90
54168;DHT22;68429;50.958;3.592;2023-10-19T09:38:20;17.60;99.90
54168;DHT22;68429;50.958;3.592;2023-10-19T09:40:51;17.40;99.90
54168;DHT22;68429;50.958;3.592;2023-10-19T09:43:24;17.50;99.90
54168;DHT22;68429;50.958;3.592;2023-10-19T09:45:53;17.40;99.90
54168;DHT22;68429;50.958;3.592;2023-10-19T09:48:21;17.30;99.90
54168;DHT22;68429;50.958;3.592;2023-10-19T09:50:55;17.40;99.90
54168;DHT22;68429;50.958;3.592;2023-10-19T09:53:30;17.40;99.90
54168;DHT22;68429;50.958;3.592;2023-10-19T09:55:59;17.40;99.90
54168;DHT22;68429;50.958;3.592;2023-10-19T09:58:51;17.20;99.90
54168;DHT22;68429;50.958;3.592;2023-10-19T10:01:18;17.20;99.90
54168;DHT22;68429;50.958;3.592;2023-10-19T10:03:50;17.20;99.90
54168;DHT22;68429;50.958;3.592;2023-10-19T10:09:26;17.20;99.90
54168;DHT22;68429;50.958;3.592;2023-10-19T10:11:52;17.10;99.90
54168;DHT22;68429;50.958;3.592;2023-10-19T10:14:26;17.20;99.90
54168;DHT22;68429;50.958;3.592;2023-10-19T10:17:04;17.20;99.90
54168;DHT22;68429;50.958;3.592;2023-10-19T10:19:35;17.10;99.90
54168;DHT22;68429;50.958;3.592;2023-10-19T10:22:08;16.80;99.90
54168;DHT22;68429;50.958;3.592;2023-10-19T10:24:41;16.70;99.90
54168;DHT22;68429;50.958;3.592;2023-10-19T10:27:07;16.60;99.90
54168;DHT22;68429;50.958;3.592;2023-10-19T10:29:35;16.50;99.90
54168;DHT22;68429;50.958;3.592;2023-10-19T10:32:01;16.30;99.90
54168;DHT22;68429;50.958;3.592;2023-10-19T10:37:00;16.30;99.90
54168;DHT22;68429;50.958;3.592;2023-10-19T10:39:28;16.20;99.90
54168;DHT22;68429;50.958;3.592;2023-10-19T10:42:00;16.20;99.90
54168;DHT22;68429;50.958;3.592;2023-10-19T10:44:45;16.40;99.90
54168;DHT22;68429;50.958;3.592;2023-10-19T10:47:21;16.40;99.90
54168;DHT22;68429;50.958;3.592;2023-10-19T10:52:35;16.60;99.90
54168;DHT22;68429;50.958;3.592;2023-10-19T10:55:12;16.70;99.90
54168;DHT22;68429;50.958;3.592;2023-10-19T10:57:39;17.00;99.90
54168;DHT22;68429;50.958;3.592;2023-10-19T11:00:10;17.90;99.90
54168;DHT22;68429;50.958;3.592;2023-10-19T11:02:41;18.90;99.90
54168;DHT22;68429;50.958;3.592;2023-10-19T11:05:15;19.50;99.90
54168;DHT22;68429;50.958;3.592;2023-10-19T11:10:39;19.10;99.90
54168;DHT22;68429;50.958;3.592;2023-10-19T11:13:09;19.30;99.90
54168;DHT22;68429;50.958;3.592;2023-10-19T11:15:36;19.10;99.90
54168;DHT22;68429;50.958;3.592;2023-10-19T11:18:02;18.70;99.90
54168;DHT22;68429;50.958;3.592;2023-10-19T11:20:28;18.70;99.90
54168;DHT22;68429;50.958;3.592;2023-10-19T11:22:55;18.60;99.90
54168;DHT22;68429;50.958;3.592;2023-10-19T11:25:26;18.40;99.90
54168;DHT22;68429;50.958;3.592;2023-10-19T11:28:00;18.30;99.90
54168;DHT22;68429;50.958;3.592;2023-10-19T11:32:53;18.00;99.90
54168;DHT22;68429;50.958;3.592;2023-10-19T11:35:26;18.00;99.90
54168;DHT22;68429;50.958;3.592;2023-10-19T11:37:54;18.00;99.90
54168;DHT22;68429;50.958;3.592;2023-10-19T11:40:21;17.90;99.90
54168;DHT22;68429;50.958;3.592;2023-10-19T11:42:48;17.90;99.90
54168;DHT22;68429;50.958;3.592;2023-10-19T11:45:14;18.00;99.90
54168;DHT22;68429;50.958;3.592;2023-10-19T11:47:39;18.10;99.90
54168;DHT22;68429;50.958;3.592;2023-10-19T11:50:05;18.10;99.90
54168;DHT22;68429;50.958;3.592;2023-10-19T11:52:31;18.20;99.90
54168;DHT22;68429;50.958;3.592;2023-10-19T11:54:58;18.40;99.90
54168;DHT22;68429;50.958;3.592;2023-10-19T11:57:24;18.60;99.90
54168;DHT22;68429;50.958;3.592;2023-10-19T11:59:52;18.70;99.90
54168;DHT22;68429;50.958;3.592;2023-10-19T12:02:19;18.90;99.90
54168;DHT22;68429;50.958;3.592;2023-10-19T12:04:44;19.20;99.90
54168;DHT22;68429;50.958;3.592;2023-10-19T12:07:11;19.10;99.90
54168;DHT22;68429;50.958;3.592;2023-10-19T12:09:37;19.00;99.90
54168;DHT22;68429;50.958;3.592;2023-10-19T12:12:02;18.80;99.90
54168;DHT22;68429;50.958;3.592;2023-10-19T12:14:32;18.50;99.90
54168;DHT22;68429;50.958;3.592;2023-10-19T12:17:00;18.40;99.90
54168;DHT22;68429;50.958;3.592;2023-10-19T12:19:32;18.30;99.90
54168;DHT22;68429;50.958;3.592;2023-10-19T12:21:59;18.20;99.90
54168;DHT22;68429;50.958;3.592;2023-10-19T12:24:25;18.10;99.90
54168;DHT22;68429;50.958;3.592;2023-10-19T12:26:53;18.10;99.90
54168;DHT22;68429;50.958;3.592;2023-10-19T12:29:19;18.10;99.90
54168;DHT22;68429;50.958;3.592;2023-10-19T12:31:47;18.20;99.90
54168;DHT22;68429;50.958;3.592;2023-10-19T12:34:13;18.20;99.90
54168;DHT22;68429;50.958;3.592;2023-10-19T12:36:38;18.30;99.90
54168;DHT22;68429;50.958;3.592;2023-10-19T12:39:06;18.40;99.90
54168;DHT22;68429;50.958;3.592;2023-10-19T12:41:32;18.50;99.90
54168;DHT22;68429;50.958;3.592;2023-10-19T12:43:58;18.70;99.90
54168;DHT22;68429;50.958;3.592;2023-10-19T12:46:26;19.10;99.90
54168;DHT22;68429;50.958;3.592;2023-10-19T12:48:55;19.90;99.90
54168;DHT22;68429;50.958;3.592;2023-10-19T12:51:24;19.80;99.90
54168;DHT22;68429;50.958;3.592;2023-10-19T12:53:54;19.70;99.90
54168;DHT22;68429;50.958;3.592;2023-10-19T12:56:21;20.70;99.90
54168;DHT22;68429;50.958;3.592;2023-10-19T12:58:49;22.80;99.90
54168;DHT22;68429;50.958;3.592;2023-10-19T13:01:15;23.20;99.90
54168;DHT22;68429;50.958;3.592;2023-10-19T13:03:45;22.50;99.90
54168;DHT22;68429;50.958;3.592;2023-10-19T13:06:12;21.70;99.90
54168;DHT22;68429;50.958;3.592;2023-10-19T13:08:38;21.20;99.90
54168;DHT22;68429;50.958;3.592;2023-10-19T13:11:06;21.10;99.90
54168;DHT22;68429;50.958;3.592;2023-10-19T13:13:32;21.40;99.90
54168;DHT22;68429;50.958;3.592;2023-10-19T13:15:58;21.70;99.90
54168;DHT22;68429;50.958;3.592;2023-10-19T13:18:25;21.50;99.90
54168;DHT22;68429;50.958;3.592;2023-10-19T13:20:56;21.60;99.90
54168;DHT22;68429;50.958;3.592;2023-10-19T13:23:22;21.90;99.90
54168;DHT22;68429;50.958;3.592;2023-10-19T13:25:49;21.80;99.90
54168;DHT22;68429;50.958;3.592;2023-10-19T13:28:17;21.60;99.90
54168;DHT22;68429;50.958;3.592;2023-10-19T13:30:47;21.00;99.90
54168;DHT22;68429;50.958;3.592;2023-10-19T13:33:14;20.50;99.90
54168;DHT22;68429;50.958;3.592;2023-10-19T13:35:41;20.10;99.90
54168;DHT22;68429;50.958;3.592;2023-10-19T13:38:09;20.10;99.90
54168;DHT22;68429;50.958;3.592;2023-10-19T13:40:38;20.30;99.90
54168;DHT22;68429;50.958;3.592;2023-10-19T13:43:05;21.10;99.90
54168;DHT22;68429;50.958;3.592;2023-10-19T13:45:33;22.60;99.90
54168;DHT22;68429;50.958;3.592;2023-10-19T13:48:03;23.00;99.90
54168;DHT22;68429;50.958;3.592;2023-10-19T13:50:29;23.50;99.90
54168;DHT22;68429;50.958;3.592;2023-10-19T13:52:55;23.80;99.90
54168;DHT22;68429;50.958;3.592;2023-10-19T13:55:26;24.00;99.90
54168;DHT22;68429;50.958;3.592;2023-10-19T13:57:52;24.60;99.90
54168;DHT22;68429;50.958;3.592;2023-10-19T14:00:19;24.40;99.90
54168;DHT22;68429;50.958;3.592;2023-10-19T14:03:01;24.10;99.90
54168;DHT22;68429;50.958;3.592;2023-10-19T14:05:28;24.30;99.90
54168;DHT22;68429;50.958;3.592;2023-10-19T14:07:54;23.90;99.90
54168;DHT22;68429;50.958;3.592;2023-10-19T14:10:21;22.90;99.90
54168;DHT22;68429;50.958;3.592;2023-10-19T14:12:47;22.20;99.90
54168;DHT22;68429;50.958;3.592;2023-10-19T14:15:18;21.40;99.90
54168;DHT22;68429;50.958;3.592;2023-10-19T14:17:46;21.30;99.90
54168;DHT22;68429;50.958;3.592;2023-10-19T14:20:16;20.90;99.90
54168;DHT22;68429;50.958;3.592;2023-10-19T14:22:44;20.70;99.90
54168;DHT22;68429;50.958;3.592;2023-10-19T14:25:10;21.10;99.90
54168;DHT22;68429;50.958;3.592;2023-10-19T14:27:43;21.70;99.90
54168;DHT22;68429;50.958;3.592;2023-10-19T14:32:48;21.70;99.90
54168;DHT22;68429;50.958;3.592;2023-10-19T14:35:19;22.20;99.90
54168;DHT22;68429;50.958;3.592;2023-10-19T14:37:50;22.50;99.90
54168;DHT22;68429;50.958;3.592;2023-10-19T14:40:19;22.40;99.90
54168;DHT22;68429;50.958;3.592;2023-10-19T14:42:49;22.20;99.90
54168;DHT22;68429;50.958;3.592;2023-10-19T14:45:19;22.30;99.90
54168;DHT22;68429;50.958;3.592;2023-10-19T14:47:49;22.70;99.90
54168;DHT22;68429;50.958;3.592;2023-10-19T14:50:17;22.70;99.90
54168;DHT22;68429;50.958;3.592;2023-10-19T14:52:47;23.50;99.90
54168;DHT22;68429;50.958;3.592;2023-10-19T14:55:14;23.10;99.90
54168;DHT22;68429;50.958;3.592;2023-10-19T14:57:42;23.00;99.90
54168;DHT22;68429;50.958;3.592;2023-10-19T15:00:09;22.60;99.90
54168;DHT22;68429;50.958;3.592;2023-10-19T15:03:03;22.60;99.90
54168;DHT22;68429;50.958;3.592;2023-10-19T15:05:36;23.20;99.90
54168;DHT22;68429;50.958;3.592;2023-10-19T15:08:03;22.80;99.90
54168;DHT22;68429;50.958;3.592;2023-10-19T15:10:30;22.30;99.90
54168;DHT22;68429;50.958;3.592;2023-10-19T15:12:57;22.00;99.90
54168;DHT22;68429;50.958;3.592;2023-10-19T15:15:25;21.40;99.90
54168;DHT22;68429;50.958;3.592;2023-10-19T15:17:51;21.20;99.90
54168;DHT22;68429;50.958;3.592;2023-10-19T15:20:20;21.00;99.90
54168;DHT22;68429;50.958;3.592;2023-10-19T15:22:47;20.80;99.90
54168;DHT22;68429;50.958;3.592;2023-10-19T15:25:14;20.40;99.90
54168;DHT22;68429;50.958;3.592;2023-10-19T15:27:41;20.10;99.90
54168;DHT22;68429;50.958;3.592;2023-10-19T15:30:09;19.90;99.90
54168;DHT22;68429;50.958;3.592;2023-10-19T15:32:37;19.80;99.90
54168;DHT22;68429;50.958;3.592;2023-10-19T15:35:03;19.50;99.90
54168;DHT22;68429;50.958;3.592;2023-10-19T15:37:29;19.50;99.90
54168;DHT22;68429;50.958;3.592;2023-10-19T15:39:55;19.50;99.90
54168;DHT22;68429;50.958;3.592;2023-10-19T15:42:20;19.50;99.90
54168;DHT22;68429;50.958;3.592;2023-10-19T15:44:50;19.50;99.90
54168;DHT22;68429;50.958;3.592;2023-10-19T15:47:16;19.40;99.90
54168;DHT22;68429;50.958;3.592;2023-10-19T15:49:52;19.50;99.90
54168;DHT22;68429;50.958;3.592;2023-10-19T15:52:22;19.40;99.90
54168;DHT22;68429;50.958;3.592;2023-10-19T15:54:49;19.40;99.90
54168;DHT22;68429;50.958;3.592;2023-10-19T15:57:16;19.50;99.90
54168;DHT22;68429;50.958;3.592;2023-10-19T15:59:42;19.70;99.90
54168;DHT22;68429;50.958;3.592;2023-10-19T16:02:09;19.90;99.90